AirNav   Everest Fuels
 
 355 users online  

24TX Thurber Lake Airport
Thurber, Texas, USA

GOING TO THURBER?


FAA INFORMATION EFFECTIVE 22 APRIL 2021

Location

FAA Identifier: 24TX
Lat/Long: 32-30-00.4720N 098-23-01.1770W
32-30.007867N 098-23.019617W
32.5001311,-98.3836603
(estimated)
Elevation: 1092 ft. / 333 m (estimated)
Variation: 07E (1985)
From city: 2 miles SE of THURBER, TX
Time zone: UTC -5 (UTC -6 during Standard Time)
Zip code: 76463

Airport Operations

Airport use: Private use. Permission required prior to landing
Activation date: 09/1954
Control tower: no
ARTCC: FORT WORTH CENTER
FSS: FORT WORTH FLIGHT SERVICE STATION
Attendance: UNATNDD
Wind indicator: no
Segmented circle: no

Nearby radio navigation aids

VOR radial/distance  VOR name  Freq  Var
MQPr226/23.8MILLSAP VORTAC117.7009E

Airport Services

Airframe service: NONE
Powerplant service: NONE

Runway Information

Runway N/S

Dimensions: 4200 x 100 ft. / 1280 x 30 m
Surface: gravel
RUNWAY N  RUNWAY S
Traffic pattern: leftleft
Obstructions: nonehill, 2640 ft. from runway

Airport Ownership and Management from official FAA records

Ownership: Privately-owned
Owner: JOHN STRIEGLER
ROUTE 1, BOX 94
MINGUS, TX 76463
Phone 817-672-5232
Manager: ALLAN STRIEGLER
RT 1, BOX 94
MINGUS, TX 76463
Phone 817-672-5232

Additional Remarks

FOR CD CTC FORT WORTH ARTCC AT 817-858-7584.

Instrument Procedures

There are no published instrument procedures at 24TX.

Some nearby airports with instrument procedures:

KSEP - Stephenville Clark Regional Airport (20 nm SE)
KETN - Eastland Municipal Airport (22 nm W)
KMWL - Mineral Wells Regional Airport (24 nm NE)
F35 - Possum Kingdom Airport (26 nm N)
KBKD - Stephens County Airport (29 nm NW)
 
Loc | Ops | Rwys | IFR | FBO | Links
Com | Nav | Svcs | Stats | Notes

City of Fort Worth
 
Area around 24TX (Thurber Lake Airport)
 
Road maps at: MapQuest Bing Google
 
Aerial photo
No photo
 
Sectional chart

 
Airport distance calculator
Flying to Thurber Lake Airport? Find the distance to fly.

From to 24TX

Sunrise and sunset
Times for 09-May-2021
 Local
(UTC-5)
 Zulu
(UTC)
Morning civil twilight06:1411:14
Sunrise06:4111:41
Sunset20:1901:19
Evening civil twilight20:4601:46

Current date and time
Zulu (UTC)  09-May-2021 09:00:49
Local (UTC-5)  09-May-2021 04:00:49
 
METAR
KSEP 
20nm SE 
090835Z AUTO 19011G16KT 10SM OVC023 23/19 A2978 RMK AO2 T02320188
KETN 
22nm W 
090835Z AUTO 18013G18KT 10SM CLR 22/19 A2974 RMK AO2 T02220195
KMWL 
23nm NE 
090853Z AUTO 17009G18KT 10SM OVC025 24/19 A2970 RMK AO2 SLP043 T02390194 56003
KBKD 
29nm NW 
090835Z AUTO 19017G22KT 10SM CLR 24/20 A2971 RMK AO2 T02430202
KGDJ 
29nm E 
AWOS-3 118.925 817-573-7514
090835Z AUTO 18016G26KT 10SM OVC025 25/19 A2974 RMK AO2 T02480191
KGZN 
33nm W 
090820Z AUTO 19013G23KT 10SM CLR 22/20 A2972 RMK AO2
KMKN 
37nm S 
090835Z AUTO 19015G21KT 10SM CLR 22/20 A2975 RMK AO2 T02220200
TAF
KNFW 
50nm E 
0908/1007 18018G30KT 9999 BKN025 540009 QNH2963INS TEMPO 0908/0913 SCT025 FM091300 22013G22KT 9999 BKN025 500000 QNH2966INS BECMG 0915/0917 27010KT 9999 VCSH SCT025 QNH2968INS TEMPO 0917/0920 6000 SHRA BKN025 BECMG 0920/0922 01011KT 9999 NSW FEW035 QNH2969INS AUTOMATED SENSOR METWATCH 0908 TIL 0911 T28/0921Z T17/1007Z COR 0820 FN00205
NOTAMs
Click for the latest NOTAMs
NOTAMs are issued by the DoD/FAA and will open in a separate window not controlled by AirNav.

 

 
 

Would you like to see your business listed on this page?

 If your business provides an interesting product or service to pilots, flight crews, aircraft, or users of the Thurber Lake Airport, you should consider listing it here.  To start the listing process, click on the button below
 
Add a business
 

Other Pages about Thurber Lake Airport

Update a link
 
Copyright © AirNav, LLC. All rights reserved. Privacy Policy  Contact